Time;durP1;ratioP1;P1;durP2;ratioP2;P2;SDS_P1;SDS_P2;PMS_P1;PMS_P2;Temp;Humidity;BMP_temperature;BMP_pressure;BME280_temperature;BME280_humidity;BME280_pressure;Samples;Min_cycle;Max_cycle;Signal;HPM_P1;HPM_P2
2021/05/01 00:01:54;;;;;;;15.70;4.60;;;6.50;99.90;;;;;;5077792;28;20031;-78
2021/05/01 00:04:19;;;;;;;6.95;3.67;;;6.50;99.90;;;;;;5096037;28;20024;-78
2021/05/01 00:06:45;;;;;;;9.60;4.20;;;6.60;99.90;;;;;;5077740;28;20023;-78
2021/05/01 00:09:11;;;;;;;9.85;3.83;;;6.60;99.90;;;;;;5095318;28;20032;-78
2021/05/01 00:11:36;;;;;;;6.97;3.90;;;6.70;99.90;;;;;;5077577;28;20024;-78
2021/05/01 00:14:03;;;;;;;11.90;3.80;;;6.70;99.90;;;;;;5077203;28;20016;-78
2021/05/01 00:16:28;;;;;;;6.35;3.45;;;6.80;99.90;;;;;;5094916;28;20427;-78
2021/05/01 00:18:55;;;;;;;10.50;3.80;;;6.80;99.90;;;;;;5095085;28;20024;-78
2021/05/01 00:21:21;;;;;;;9.85;4.38;;;6.80;99.90;;;;;;5095246;28;20123;-78
2021/05/01 00:23:46;;;;;;;8.32;3.80;;;6.80;99.90;;;;;;5095358;28;20052;-78
2021/05/01 00:26:12;;;;;;;9.82;3.83;;;6.80;99.90;;;;;;5077256;28;20027;-78
2021/05/01 00:28:41;;;;;;;12.35;4.25;;;6.80;99.90;;;;;;5095522;28;20080;-78
2021/05/01 00:31:07;;;;;;;8.23;4.43;;;6.80;99.90;;;;;;5076545;28;20031;-78
2021/05/01 00:33:33;;;;;;;11.93;4.25;;;6.80;99.90;;;;;;5077191;28;20024;-78
2021/05/01 00:35:58;;;;;;;9.70;3.67;;;6.80;99.90;;;;;;5095319;28;20055;-78
2021/05/01 00:38:24;;;;;;;11.15;3.63;;;6.80;99.90;;;;;;5095636;28;20023;-78
2021/05/01 00:40:50;;;;;;;9.50;3.20;;;6.80;99.90;;;;;;5077258;28;20020;-78
2021/05/01 00:43:16;;;;;;;9.60;4.10;;;6.80;99.90;;;;;;5077403;28;20020;-78
2021/05/01 00:45:42;;;;;;;8.80;4.05;;;6.80;99.90;;;;;;5077655;28;20391;-78
2021/05/01 00:48:07;;;;;;;7.65;3.47;;;6.80;99.90;;;;;;5095545;28;20031;-78
2021/05/01 00:50:34;;;;;;;8.80;3.30;;;6.80;99.90;;;;;;5077557;28;20040;-78
2021/05/01 00:53:00;;;;;;;7.20;2.85;;;6.80;99.90;;;;;;5095654;28;20091;-78
2021/05/01 00:55:26;;;;;;;9.15;3.70;;;6.80;99.90;;;;;;5077341;28;20111;-78
2021/05/01 00:57:51;;;;;;;8.82;4.05;;;6.70;99.90;;;;;;5077290;28;20047;-78
2021/05/01 01:03:00;;;;;;;8.57;3.53;;;6.60;99.90;;;;;;5095476;28;20391;-78
2021/05/01 01:05:26;;;;;;;6.75;3.08;;;6.60;99.90;;;;;;5094934;28;20036;-78
2021/05/01 01:07:52;;;;;;;7.22;3.80;;;6.50;99.90;;;;;;5077232;28;20027;-78
2021/05/01 01:10:18;;;;;;;11.38;3.50;;;6.50;99.90;;;;;;5094702;28;20034;-78
2021/05/01 01:12:43;;;;;;;12.30;4.07;;;6.50;99.90;;;;;;5094537;28;20431;-78
2021/05/01 01:15:10;;;;;;;9.55;4.07;;;6.40;99.90;;;;;;5095107;28;20020;-78
2021/05/01 01:17:35;;;;;;;10.55;3.78;;;6.40;99.90;;;;;;5076620;28;20027;-78
2021/05/01 01:20:03;;;;;;;14.05;4.43;;;6.30;99.90;;;;;;5076768;28;20020;-78
2021/05/01 01:22:28;;;;;;;14.55;3.60;;;6.30;99.90;;;;;;5094872;28;20460;-78
2021/05/01 01:24:54;;;;;;;7.00;3.38;;;6.20;99.90;;;;;;5076459;28;20025;-78
2021/05/01 01:27:20;;;;;;;8.48;3.80;;;6.10;99.90;;;;;;5076306;28;20016;-78
2021/05/01 01:29:47;;;;;;;9.15;3.53;;;6.00;99.90;;;;;;5094733;28;20012;-78
2021/05/01 01:32:13;;;;;;;14.98;4.20;;;5.90;99.90;;;;;;5076357;28;20028;-78
2021/05/01 01:34:43;;;;;;;10.75;3.80;;;5.90;99.90;;;;;;5076145;28;20020;-77
2021/05/01 01:37:09;;;;;;;10.40;4.00;;;5.80;99.90;;;;;;5106750;22;20036;-79
2021/05/01 01:39:38;;;;;;;10.57;4.38;;;5.60;99.90;;;;;;5094298;28;20032;-76
2021/05/01 01:42:04;;;;;;;15.68;4.70;;;5.60;99.90;;;;;;5096631;28;20393;-77
2021/05/01 01:44:30;;;;;;;13.27;4.22;;;5.50;99.90;;;;;;5079628;28;20082;-76
2021/05/01 01:46:56;;;;;;;7.72;3.75;;;5.50;99.90;;;;;;5098137;28;20538;-78
2021/05/01 01:49:22;;;;;;;11.35;5.05;;;5.40;99.90;;;;;;5079432;28;20107;-78
2021/05/01 01:51:47;;;;;;;10.85;4.18;;;5.30;99.90;;;;;;5110726;22;20032;-79
2021/05/01 01:54:13;;;;;;;9.73;4.68;;;5.20;99.90;;;;;;5097530;28;20059;-76
2021/05/01 01:59:07;;;;;;;13.25;5.20;;;5.20;99.90;;;;;;5075925;28;20070;-76
2021/05/01 02:01:33;;;;;;;11.98;5.07;;;5.20;99.90;;;;;;5076635;28;20017;-76
2021/05/01 02:03:59;;;;;;;11.35;4.53;;;5.10;99.90;;;;;;5058910;28;20024;-76
2021/05/01 02:06:25;;;;;;;13.75;4.88;;;5.10;99.90;;;;;;5058925;28;20116;-76
2021/05/01 02:08:51;;;;;;;9.23;4.97;;;5.20;99.90;;;;;;5076697;28;20031;-76
2021/05/01 02:11:16;;;;;;;11.80;4.10;;;5.20;99.90;;;;;;5059200;28;20064;-76
2021/05/01 02:13:42;;;;;;;10.65;4.60;;;5.20;99.90;;;;;;5076918;28;20063;-76
2021/05/01 02:16:08;;;;;;;12.27;5.28;;;5.30;99.90;;;;;;5076874;28;20016;-76
2021/05/01 02:18:33;;;;;;;14.30;5.13;;;5.30;99.90;;;;;;5058586;28;20023;-76
2021/05/01 02:20:59;;;;;;;11.85;4.38;;;5.30;99.90;;;;;;5076219;28;20028;-76
2021/05/01 02:23:25;;;;;;;10.63;4.40;;;5.20;99.90;;;;;;5058499;28;20029;-76
2021/05/01 02:25:51;;;;;;;10.63;4.38;;;5.20;99.90;;;;;;5076382;28;20040;-76
2021/05/01 02:28:18;;;;;;;15.88;5.20;;;5.10;99.90;;;;;;5076254;28;20366;-77
2021/05/01 02:30:44;;;;;;;11.13;4.00;;;5.10;99.90;;;;;;5076149;28;20020;-77
2021/05/01 02:33:09;;;;;;;8.52;4.25;;;5.00;99.90;;;;;;5058332;28;20115;-77
2021/05/01 02:35:38;;;;;;;9.45;4.30;;;5.00;99.90;;;;;;5076727;28;20151;-77
2021/05/01 02:38:03;;;;;;;12.45;5.10;;;4.90;99.90;;;;;;5058406;28;20016;-77
2021/05/01 02:40:31;;;;;;;10.82;4.63;;;4.80;99.90;;;;;;5058406;28;20070;-77
2021/05/01 02:43:07;;;;;;;9.25;4.13;;;4.80;99.90;;;;;;5058355;28;20052;-76
2021/05/01 02:45:33;;;;;;;10.73;4.43;;;4.80;99.90;;;;;;5076753;28;20107;-76
2021/05/01 02:47:59;;;;;;;10.20;4.68;;;4.70;99.90;;;;;;5076409;28;20025;-76
2021/05/01 02:50:24;;;;;;;12.05;5.30;;;4.70;99.90;;;;;;5076123;28;20031;-76
2021/05/01 02:52:50;;;;;;;11.35;4.43;;;4.60;99.90;;;;;;5057459;28;20020;-77
2021/05/01 02:55:16;;;;;;;10.63;4.90;;;4.60;99.90;;;;;;5076101;28;20037;-77
2021/05/01 02:57:42;;;;;;;6.88;3.95;;;4.60;99.90;;;;;;5058180;28;20028;-76
2021/05/01 03:00:12;;;;;;;13.32;5.45;;;4.50;99.90;;;;;;5076374;28;20099;-76
2021/05/01 03:02:37;;;;;;;10.05;4.30;;;4.50;99.90;;;;;;5058219;28;20083;-77
2021/05/01 03:05:04;;;;;;;8.95;4.38;;;4.40;99.90;;;;;;5076515;28;20024;-76
2021/05/01 03:07:29;;;;;;;14.95;4.60;;;4.40;99.90;;;;;;5057982;28;20029;-76
2021/05/01 03:09:55;;;;;;;11.60;4.93;;;4.30;99.90;;;;;;5075929;28;20031;-76
2021/05/01 03:12:21;;;;;;;12.50;4.90;;;4.30;99.90;;;;;;5075601;28;20029;-76
2021/05/01 03:14:46;;;;;;;14.25;5.43;;;4.30;99.90;;;;;;5057673;28;20162;-77
2021/05/01 03:17:13;;;;;;;15.63;5.57;;;4.20;99.90;;;;;;5075761;28;20100;-77
2021/05/01 03:19:39;;;;;;;15.82;5.80;;;4.20;99.90;;;;;;5075547;28;20021;-77
2021/05/01 03:22:06;;;;;;;9.93;5.20;;;4.20;99.90;;;;;;5057765;28;20119;-77
2021/05/01 03:24:32;;;;;;;16.50;5.20;;;4.20;99.90;;;;;;5075103;28;20035;-77
2021/05/01 03:26:57;;;;;;;13.75;5.63;;;4.10;99.90;;;;;;5075254;28;20408;-77
2021/05/01 03:29:23;;;;;;;10.38;5.05;;;4.10;99.90;;;;;;5057609;28;20024;-77
2021/05/01 03:31:49;;;;;;;11.60;5.60;;;4.10;99.90;;;;;;5057320;28;20025;-77
2021/05/01 03:34:15;;;;;;;14.23;5.90;;;4.00;99.90;;;;;;5057284;28;20031;-77
2021/05/01 03:36:40;;;;;;;11.73;4.82;;;4.00;99.90;;;;;;5074951;28;20023;-77
2021/05/01 03:39:06;;;;;;;12.43;5.15;;;4.00;99.90;;;;;;5057024;28;20056;-77
2021/05/01 03:41:31;;;;;;;12.93;5.50;;;3.90;99.90;;;;;;5074954;28;20021;-76
2021/05/01 03:43:57;;;;;;;10.50;4.78;;;3.90;99.90;;;;;;5075198;28;20473;-77
2021/05/01 03:46:23;;;;;;;9.18;4.25;;;3.80;99.90;;;;;;5057746;28;20029;-77
2021/05/01 03:48:48;;;;;;;14.68;5.97;;;3.80;99.90;;;;;;5056720;28;20066;-76
2021/05/01 03:51:14;;;;;;;19.52;6.03;;;3.80;99.90;;;;;;5075288;28;20095;-75
2021/05/01 03:53:39;;;;;;;10.23;5.18;;;3.70;99.90;;;;;;5074795;28;20098;-75
2021/05/01 03:56:05;;;;;;;13.57;5.70;;;3.80;99.90;;;;;;5056839;28;20021;-76
2021/05/01 03:58:30;;;;;;;10.93;4.68;;;3.70;99.90;;;;;;5056941;28;20039;-76
2021/05/01 04:00:56;;;;;;;15.05;6.45;;;3.70;99.90;;;;;;5075200;28;20052;-76
2021/05/01 04:03:21;;;;;;;11.55;5.43;;;3.60;99.90;;;;;;5075169;28;20427;-77
2021/05/01 04:05:47;;;;;;;10.55;5.30;;;3.60;99.90;;;;;;5074653;28;20396;-76
2021/05/01 04:08:13;;;;;;;14.48;6.30;;;3.60;99.90;;;;;;5058140;28;20025;-78
2021/05/01 04:10:38;;;;;;;12.20;5.50;;;3.60;99.90;;;;;;5056654;28;20025;-77
2021/05/01 04:13:04;;;;;;;13.10;6.07;;;3.60;99.90;;;;;;5074592;28;20025;-78
2021/05/01 04:15:29;;;;;;;12.90;6.40;;;3.60;99.90;;;;;;5057368;28;20052;-78
2021/05/01 04:17:56;;;;;;;11.45;6.13;;;3.60;99.90;;;;;;5074681;28;20056;-77
2021/05/01 04:20:21;;;;;;;11.23;5.53;;;3.50;99.90;;;;;;5101551;22;20052;-76
2021/05/01 04:22:48;;;;;;;12.90;5.45;;;3.50;99.90;;;;;;5076588;28;20016;-75
2021/05/01 04:25:13;;;;;;;15.13;5.97;;;3.50;99.90;;;;;;5091174;22;20020;-76
2021/05/01 04:27:42;;;;;;;11.52;6.00;;;3.10;99.90;;;;;;5093729;28;20761;-79
2021/05/01 04:30:09;;;;;;;18.20;6.85;;;3.50;99.90;;;;;;5076306;28;20024;-77
2021/05/01 04:32:35;;;;;;;17.70;7.80;;;3.50;99.90;;;;;;5094671;28;20069;-79
2021/05/01 04:35:03;;;;;;;16.60;6.82;;;3.50;99.90;;;;;;5094441;28;20016;-77
2021/05/01 04:37:29;;;;;;;16.08;7.15;;;3.60;99.90;;;;;;5076402;28;20499;-79
2021/05/01 04:39:54;;;;;;;16.52;6.90;;;3.60;99.90;;;;;;5094227;28;20099;-78
2021/05/01 04:42:20;;;;;;;21.45;8.68;;;3.70;99.90;;;;;;5094317;28;20027;-79
2021/05/01 04:44:45;;;;;;;20.08;7.57;;;3.70;99.90;;;;;;5076093;28;20108;-75
2021/05/01 04:47:11;;;;;;;16.08;7.95;;;3.70;99.90;;;;;;5094608;28;20042;-75
2021/05/01 04:49:40;;;;;;;19.55;8.07;;;3.80;99.90;;;;;;5075949;28;20026;-79
2021/05/01 04:52:05;;;;;;;;;;;3.80;99.90;;;;;;5076436;28;20024;-79
2021/05/01 04:54:31;;;;;;;16.38;7.35;;;3.90;99.90;;;;;;5083101;23;19920;-76
2021/05/01 04:56:56;;;;;;;18.60;8.68;;;3.90;99.90;;;;;;5055927;28;20020;-76
2021/05/01 04:59:22;;;;;;;19.77;9.68;;;4.00;99.90;;;;;;5073710;28;20055;-75
2021/05/01 05:01:47;;;;;;;16.92;8.20;;;4.10;99.90;;;;;;5107045;22;20048;-77
2021/05/01 05:04:13;;;;;;;15.20;7.57;;;4.10;99.90;;;;;;5076265;28;20089;-77
2021/05/01 05:06:39;;;;;;;21.63;9.45;;;4.20;99.90;;;;;;5107285;22;20044;-75
2021/05/01 05:09:04;;;;;;;19.83;8.75;;;4.30;99.90;;;;;;5081282;22;20042;-75
2021/05/01 05:11:30;;;;;;;15.55;8.18;;;4.40;99.90;;;;;;5055953;28;20021;-75
2021/05/01 05:13:55;;;;;;;16.30;8.65;;;4.50;99.90;;;;;;5072832;28;20121;-76
2021/05/01 05:16:21;;;;;;;16.13;8.10;;;4.50;99.90;;;;;;5075609;28;20492;-76
2021/05/01 05:18:47;;;;;;;17.67;8.18;;;4.70;99.90;;;;;;5078084;28;20079;-76
2021/05/01 05:21:13;;;;;;;16.90;8.77;;;4.80;99.90;;;;;;5077717;28;20048;-76
2021/05/01 05:23:38;;;;;;;16.15;7.68;;;4.90;99.90;;;;;;5078554;28;20519;-77
2021/05/01 05:26:04;;;;;;;20.90;8.40;;;5.00;99.90;;;;;;5060105;28;20033;-75
2021/05/01 05:28:29;;;;;;;20.42;9.27;;;5.00;99.90;;;;;;5060310;28;20029;-78
2021/05/01 05:30:55;;;;;;;19.55;8.15;;;5.10;99.90;;;;;;5076126;28;20482;-75
2021/05/01 05:33:21;;;;;;;14.80;7.25;;;5.30;99.90;;;;;;5077728;28;20493;-75
2021/05/01 05:35:46;;;;;;;14.02;7.45;;;5.30;99.90;;;;;;5059844;28;20048;-75
2021/05/01 05:38:12;;;;;;;21.75;9.15;;;5.40;99.90;;;;;;5077725;28;20550;-76
2021/05/01 05:40:41;;;;;;;18.23;8.32;;;5.50;99.90;;;;;;5059457;28;20123;-75
2021/05/01 05:43:06;;;;;;;;;;;5.60;99.90;;;;;;5059743;28;20028;-77
2021/05/01 05:45:33;;;;;;;16.23;7.30;;;5.70;99.90;;;;;;5077217;28;19904;-77
2021/05/01 05:47:59;;;;;;;22.58;9.38;;;5.80;99.90;;;;;;5059685;28;20078;-76
2021/05/01 05:50:25;;;;;;;16.48;7.65;;;5.90;99.90;;;;;;5077704;28;20020;-76
2021/05/01 05:52:50;;;;;;;16.75;6.78;;;6.00;99.90;;;;;;5072565;22;20480;-77
2021/05/01 05:55:16;;;;;;;10.70;5.93;;;6.20;99.90;;;;;;5077223;28;20040;-76
2021/05/01 05:57:50;;;;;;;14.65;6.85;;;6.20;99.90;;;;;;5059268;28;20423;-76
2021/05/01 06:00:16;;;;;;;12.82;6.30;;;6.30;99.90;;;;;;5077123;28;20107;-77
2021/05/01 06:02:43;;;;;;;14.68;7.05;;;6.40;99.90;;;;;;5077105;28;20021;-76
2021/05/01 06:05:27;;;;;;;11.48;6.05;;;6.40;99.90;;;;;;5077495;28;20024;-76
2021/05/01 06:07:58;;;;;;;16.15;5.78;;;6.60;99.90;;;;;;5058999;28;20023;-75
2021/05/01 06:10:24;;;;;;;12.98;5.32;;;6.70;99.90;;;;;;5077575;28;20016;-78
2021/05/01 06:12:53;;;;;;;11.20;5.55;;;6.80;99.90;;;;;;5058622;28;20139;-75
2021/05/01 06:15:19;;;;;;;10.95;5.80;;;6.90;99.90;;;;;;5059128;28;20048;-77
2021/05/01 06:17:47;;;;;;;11.93;4.80;;;7.00;99.90;;;;;;5090159;22;20078;-76
2021/05/01 06:20:14;;;;;;;11.98;5.57;;;7.10;99.90;;;;;;5097396;28;20028;-77
2021/05/01 06:22:40;;;;;;;10.13;4.88;;;7.20;99.90;;;;;;5097439;28;20020;-75
2021/05/01 06:25:09;;;;;;;12.80;6.00;;;7.20;99.90;;;;;;5106658;22;20071;-76
2021/05/01 06:27:35;;;;;;;11.38;4.32;;;7.20;99.90;;;;;;5075415;28;20036;-78
2021/05/01 06:30:03;;;;;;;12.80;4.50;;;7.30;99.90;;;;;;5077080;28;20026;-75
2021/05/01 06:32:29;;;;;;;18.67;5.00;;;7.40;99.90;;;;;;5076855;28;20078;-75
2021/05/01 06:34:56;;;;;;;8.35;4.15;;;7.50;99.90;;;;;;5076920;28;20021;-76
2021/05/01 06:37:23;;;;;;;10.75;4.30;;;7.60;99.90;;;;;;5077085;28;20020;-76
2021/05/01 06:39:51;;;;;;;12.25;3.42;;;7.70;99.90;;;;;;5076745;28;20016;-76
2021/05/01 06:42:27;;;;;;;6.57;3.67;;;7.90;99.90;;;;;;5076675;28;20380;-75
2021/05/01 06:45:04;;;;;;;12.95;4.35;;;8.00;99.90;;;;;;5076422;28;20028;-75
2021/05/01 06:47:31;;;;;;;11.82;4.68;;;8.10;99.90;;;;;;5076540;28;20381;-77
2021/05/01 06:50:08;;;;;;;10.38;4.10;;;8.10;99.90;;;;;;5076958;28;20028;-75
2021/05/01 06:52:38;;;;;;;8.35;4.13;;;8.10;99.90;;;;;;5058885;28;20025;-74
2021/05/01 06:55:05;;;;;;;5.75;3.50;;;8.20;99.90;;;;;;5076809;28;20162;-74
2021/05/01 06:57:31;;;;;;;8.40;2.97;;;8.30;99.90;;;;;;5117474;22;20079;-75
2021/05/01 06:59:59;;;;;;;8.35;3.28;;;8.40;99.90;;;;;;5096523;28;20016;-74
2021/05/01 07:02:28;;;;;;;6.13;2.70;;;8.50;99.90;;;;;;5078218;28;20498;-75
2021/05/01 07:04:55;;;;;;;;;;;8.60;99.90;;;;;;5078725;28;20079;-75
2021/05/01 07:07:22;;;;;;;9.48;3.60;;;8.80;99.90;;;;;;5078544;28;19904;-75
2021/05/01 07:09:48;;;;;;;6.05;2.75;;;8.90;99.90;;;;;;5096483;28;20069;-75
2021/05/01 07:12:14;;;;;;;9.25;2.22;;;9.00;99.90;;;;;;5096534;28;20485;-78
2021/05/01 07:14:41;;;;;;;5.07;2.25;;;9.10;99.90;;;;;;5096173;28;20051;-76
2021/05/01 07:17:07;;;;;;;5.47;2.22;;;9.30;99.90;;;;;;5096254;28;20071;-77
2021/05/01 07:19:34;;;;;;;3.25;2.15;;;9.30;99.90;;;;;;5078247;28;20016;-78
2021/05/01 07:22:00;;;;;;;12.38;2.65;;;9.50;99.90;;;;;;5096486;28;20016;-77
2021/05/01 07:24:27;;;;;;;11.07;3.05;;;9.70;99.90;;;;;;5061170;28;20508;-75
2021/05/01 07:26:55;;;;;;;10.50;2.58;;;9.70;99.90;;;;;;5095946;28;20091;-74
2021/05/01 07:29:23;;;;;;;7.80;1.65;;;9.80;99.90;;;;;;5096089;28;20024;-78
2021/05/01 07:31:50;;;;;;;5.03;1.30;;;9.90;99.90;;;;;;5078013;28;20115;-76
2021/05/01 07:36:46;;;;;;;13.05;1.92;;;9.80;99.90;;;;;;5068478;22;20049;-76
2021/05/01 07:39:13;;;;;;;6.95;1.50;;;9.40;99.90;;;;;;5094187;28;20043;-76
2021/05/01 07:41:55;;;;;;;8.98;1.17;;;10.00;99.90;;;;;;5096632;28;20077;-78
2021/05/01 07:44:24;;;;;;;4.25;1.20;;;10.00;99.90;;;;;;5090264;22;20089;-75
2021/05/01 07:46:50;;;;;;;7.32;1.52;;;9.90;99.90;;;;;;5077726;28;20020;-77
2021/05/01 07:49:16;;;;;;;3.63;1.27;;;9.80;99.90;;;;;;5095900;28;20027;-75
2021/05/01 07:51:43;;;;;;;5.75;1.13;;;9.70;99.90;;;;;;5090843;22;20036;-75
2021/05/01 07:54:09;;;;;;;8.65;1.15;;;9.80;99.90;;;;;;5108827;22;20503;-74
2021/05/01 07:56:35;;;;;;;6.72;0.60;;;10.10;99.90;;;;;;5108481;22;20044;-74
2021/05/01 07:59:01;;;;;;;4.25;0.70;;;10.30;99.90;;;;;;5095738;28;20069;-78
2021/05/01 08:01:28;;;;;;;5.35;1.20;;;10.50;99.90;;;;;;5095842;28;20020;-77
2021/05/01 08:03:54;;;;;;;3.25;0.77;;;10.40;99.90;;;;;;5095771;28;20031;-76
2021/05/01 08:06:20;;;;;;;4.57;1.33;;;10.40;99.90;;;;;;5096155;28;20031;-77
2021/05/01 08:08:46;;;;;;;4.68;0.98;;;10.30;99.90;;;;;;5095844;28;20048;-76
2021/05/01 08:11:12;;;;;;;3.08;1.15;;;10.40;99.90;;;;;;5095091;28;20051;-75
2021/05/01 08:13:37;;;;;;;3.60;1.10;;;10.50;99.90;;;;;;5095332;28;20111;-76
2021/05/01 08:16:03;;;;;;;5.80;1.67;;;10.60;98.30;;;;;;5095391;28;20012;-74
2021/05/01 08:18:29;;;;;;;3.63;0.88;;;10.90;99.90;;;;;;5076894;28;20066;-75
2021/05/01 08:20:54;;;;;;;3.53;0.95;;;11.20;98.50;;;;;;5095773;28;20012;-76
2021/05/01 08:23:20;;;;;;;4.00;0.90;;;11.30;98.50;;;;;;5095460;28;20457;-75
2021/05/01 08:25:45;;;;;;;3.35;0.55;;;11.40;93.60;;;;;;5095142;28;20094;-78
2021/05/01 08:28:11;;;;;;;3.55;0.68;;;11.60;93.20;;;;;;5076979;28;20050;-76
2021/05/01 08:30:37;;;;;;;2.60;0.90;;;11.80;91.20;;;;;;5076494;28;20076;-74
2021/05/01 08:33:02;;;;;;;5.50;0.70;;;11.50;90.30;;;;;;5076278;28;20031;-75
2021/05/01 08:35:28;;;;;;;1.63;0.50;;;11.30;91.20;;;;;;5076684;28;20024;-74
2021/05/01 08:37:54;;;;;;;5.47;0.70;;;11.00;90.20;;;;;;5094743;28;20484;-76
2021/05/01 08:40:19;;;;;;;1.05;0.47;;;10.90;92.20;;;;;;5094754;28;20061;-74
2021/05/01 08:42:47;;;;;;;2.92;0.45;;;10.70;91.20;;;;;;5076693;28;20563;-75
2021/05/01 08:45:18;;;;;;;5.25;0.50;;;10.50;89.30;;;;;;5094718;28;20027;-75
2021/05/01 08:47:46;;;;;;;2.80;0.93;;;10.40;92.60;;;;;;5094886;28;20460;-75
2021/05/01 08:52:43;;;;;;;3.33;0.45;;;10.20;94.00;;;;;;5072865;28;20045;-75
2021/05/01 08:55:09;;;;;;;1.67;0.50;;;10.10;95.20;;;;;;5055938;28;20086;-75
2021/05/01 08:57:34;;;;;;;8.43;0.70;;;10.10;97.50;;;;;;5073856;28;20024;-76
2021/05/01 09:00:00;;;;;;;3.78;0.80;;;10.00;95.20;;;;;;5056113;28;20027;-76
2021/05/01 09:02:28;;;;;;;5.70;1.55;;;10.10;97.90;;;;;;5073976;28;20051;-75
2021/05/01 09:04:54;;;;;;;1.63;0.32;;;10.30;98.60;;;;;;5074096;28;20024;-75
2021/05/01 09:07:21;;;;;;;3.90;0.50;;;10.60;97.20;;;;;;5073730;28;20032;-74
2021/05/01 09:09:57;;;;;;;3.13;0.70;;;11.00;95.00;;;;;;5074119;28;20044;-77
2021/05/01 09:12:39;;;;;;;2.83;0.70;;;11.50;94.80;;;;;;5056534;28;20024;-74
2021/05/01 09:15:08;;;;;;;1.77;0.40;;;12.00;93.00;;;;;;5056683;28;20024;-77
2021/05/01 09:17:35;;;;;;;1.58;0.57;;;12.50;85.60;;;;;;5073909;28;20013;-75
2021/05/01 09:20:04;;;;;;;6.90;0.32;;;12.90;84.00;;;;;;5102453;22;20055;-75
2021/05/01 09:22:29;;;;;;;3.42;0.75;;;12.90;78.90;;;;;;5093761;28;20024;-75
2021/05/01 09:25:07;;;;;;;0.82;0.25;;;12.70;75.70;;;;;;5093844;28;20366;-75
2021/05/01 09:27:34;;;;;;;2.43;0.70;;;12.30;74.60;;;;;;5094465;28;20032;-76
2021/05/01 09:30:12;;;;;;;3.45;0.60;;;12.00;75.10;;;;;;5107104;22;20032;-75
2021/05/01 09:32:38;;;;;;;2.13;0.50;;;11.80;78.50;;;;;;5093645;28;20069;-76
2021/05/01 09:35:06;;;;;;;0.77;0.45;;;11.80;80.80;;;;;;5076292;28;20115;-76
2021/05/01 09:37:32;;;;;;;1.20;0.40;;;11.80;80.60;;;;;;5094601;28;20016;-75
2021/05/01 09:39:59;;;;;;;6.97;2.00;;;11.90;79.90;;;;;;5079809;22;20470;-75
2021/05/01 09:42:29;;;;;;;1.48;0.68;;;11.70;83.90;;;;;;5073450;28;20024;-76
2021/05/01 09:45:18;;;;;;;3.40;1.48;;;11.70;89.50;;;;;;5073910;28;20058;-75
2021/05/01 09:47:51;;;;;;;2.67;0.90;;;11.70;92.90;;;;;;5073236;28;20501;-75
2021/05/01 09:50:25;;;;;;;4.13;0.60;;;12.00;92.80;;;;;;5073602;28;20496;-75
2021/05/01 09:53:05;;;;;;;2.88;1.58;;;12.20;91.40;;;;;;5073381;28;20037;-77
2021/05/01 09:55:47;;;;;;;0.95;0.50;;;12.30;87.40;;;;;;5072781;28;20017;-78
2021/05/01 09:58:33;;;;;;;6.85;1.00;;;12.40;88.00;;;;;;5073750;28;20020;-78
2021/05/01 10:01:17;;;;;;;2.35;0.63;;;12.60;90.20;;;;;;5073568;28;20032;-80
2021/05/01 10:03:43;;;;;;;1.92;0.80;;;12.60;84.30;;;;;;5075384;28;20021;-78
2021/05/01 10:06:14;;;;;;;3.35;0.88;;;12.50;79.40;;;;;;5093534;28;20474;-80
2021/05/01 10:08:41;;;;;;;1.15;0.30;;;12.40;79.90;;;;;;5076472;28;20111;-77
2021/05/01 10:11:11;;;;;;;4.38;1.05;;;12.70;76.00;;;;;;5077556;28;20493;-78
2021/05/01 10:13:47;;;;;;;2.88;0.55;;;12.90;77.40;;;;;;5077683;28;20032;-81
2021/05/01 10:19:02;;;;;;;2.00;0.80;;;13.60;77.60;;;;;;5074921;28;20114;-75
2021/05/01 10:21:28;;;;;;;0.63;0.30;;;13.80;65.90;;;;;;5076436;28;20389;-77
2021/05/01 10:23:56;;;;;;;2.10;0.22;;;13.70;60.90;;;;;;5076364;28;20020;-76
2021/05/01 10:26:22;;;;;;;3.07;0.37;;;13.60;61.50;;;;;;5077017;28;20426;-79
2021/05/01 10:28:49;;;;;;;0.93;0.20;;;13.70;62.90;;;;;;5076891;28;20035;-77
2021/05/01 10:31:18;;;;;;;2.30;0.10;;;13.60;60.70;;;;;;5075924;28;20021;-79
2021/05/01 10:33:45;;;;;;;;;;;13.70;60.30;;;;;;5075263;28;20366;-76
2021/05/01 10:36:27;;;;;;;1.30;0.25;;;13.80;60.50;;;;;;5091266;23;19919;-77
2021/05/01 10:39:01;;;;;;;2.78;0.50;;;13.80;59.30;;;;;;5079156;28;20452;-77
2021/05/01 10:41:30;;;;;;;2.38;0.60;;;14.00;62.40;;;;;;5079326;28;20028;-79
2021/05/01 10:43:57;;;;;;;3.55;0.20;;;14.20;61.10;;;;;;5098853;28;20055;-78
2021/05/01 10:46:31;;;;;;;1.80;0.10;;;14.30;58.50;;;;;;5078158;28;20032;-75
2021/05/01 10:49:06;;;;;;;2.10;0.38;;;14.60;58.50;;;;;;5077861;28;20376;-77
2021/05/01 10:51:40;;;;;;;1.40;0.10;;;14.90;59.20;;;;;;5096831;28;20059;-77
2021/05/01 10:54:20;;;;;;;7.32;0.20;;;15.10;58.80;;;;;;5078326;28;20028;-78
2021/05/01 10:56:54;;;;;;;0.52;0.10;;;15.20;58.00;;;;;;5096523;28;20026;-75
2021/05/01 10:59:27;;;;;;;2.28;0.35;;;15.30;58.20;;;;;;5097235;28;20020;-75
2021/05/01 11:01:57;;;;;;;4.97;1.10;;;15.50;59.60;;;;;;5097454;28;20099;-75
2021/05/01 11:04:25;;;;;;;0.85;0.20;;;15.40;59.40;;;;;;5096124;28;20032;-76
2021/05/01 11:06:51;;;;;;;1.15;0.30;;;15.30;57.60;;;;;;5096340;28;20016;-76
2021/05/01 11:09:41;;;;;;;1.30;0.50;;;14.60;56.10;;;;;;5095506;28;20035;-75
2021/05/01 11:12:12;;;;;;;0.85;0.22;;;14.30;57.00;;;;;;5095810;28;20489;-75
2021/05/01 11:14:47;;;;;;;1.60;0.20;;;14.50;61.70;;;;;;5095639;28;20068;-78
2021/05/01 11:17:31;;;;;;;0.63;0.10;;;14.70;56.80;;;;;;5095700;28;20016;-75
2021/05/01 11:20:06;;;;;;;0.90;0.52;;;15.10;57.20;;;;;;5095611;28;20020;-77
2021/05/01 11:22:34;;;;;;;1.40;0.10;;;15.10;55.70;;;;;;5102524;22;20442;-76
2021/05/01 11:25:07;;;;;;;1.50;0.25;;;14.80;57.80;;;;;;5095427;28;20028;-74
2021/05/01 11:27:33;;;;;;;0.60;0.10;;;14.60;56.70;;;;;;5077868;28;20472;-75
2021/05/01 11:29:59;;;;;;;4.43;0.30;;;14.20;57.20;;;;;;5095564;28;20052;-75
2021/05/01 11:32:26;;;;;;;0.85;0.35;;;14.10;58.60;;;;;;5076918;28;20050;-76
2021/05/01 11:35:04;;;;;;;2.95;0.25;;;14.10;55.50;;;;;;5108829;22;20052;-76
2021/05/01 11:37:35;;;;;;;2.47;0.20;;;14.10;57.90;;;;;;5077115;28;20020;-78
2021/05/01 11:40:03;;;;;;;2.20;0.85;;;14.40;60.00;;;;;;5077075;28;20081;-78
2021/05/01 11:42:30;;;;;;;2.67;0.15;;;14.90;55.10;;;;;;5094923;28;20024;-77
2021/05/01 11:44:56;;;;;;;3.17;0.10;;;15.40;53.40;;;;;;5095638;28;20371;-75
2021/05/01 11:47:25;;;;;;;1.80;0.35;;;15.70;56.80;;;;;;5076765;28;20487;-77
2021/05/01 11:49:54;;;;;;;3.28;0.43;;;16.10;55.10;;;;;;5076702;28;20062;-78
2021/05/01 11:53:12;;;;;;;0.38;0.20;;;16.10;54.60;;;;;;5094790;28;20024;-75
2021/05/01 11:55:46;;;;;;;4.20;0.70;;;16.20;53.60;;;;;;5014659;28;20048;-75
2021/05/01 11:58:33;;;;;;;3.25;0.60;;;16.30;54.60;;;;;;5095409;28;20022;-77
2021/05/01 12:01:15;;;;;;;4.60;0.28;;;16.40;57.30;;;;;;5094728;28;20069;-76
2021/05/01 12:03:42;;;;;;;2.95;0.22;;;16.40;52.70;;;;;;5095070;28;20028;-77
2021/05/01 12:06:18;;;;;;;1.33;0.25;;;16.20;50.10;;;;;;5094762;28;20392;-76
2021/05/01 12:08:44;;;;;;;2.13;0.47;;;16.20;54.20;;;;;;5095285;28;20099;-75
2021/05/01 12:11:11;;;;;;;0.17;0.10;;;16.70;57.70;;;;;;5070534;22;20072;-75
2021/05/01 12:13:41;;;;;;;1.27;0.20;;;17.20;52.00;;;;;;5056091;28;20028;-75
2021/05/01 12:16:18;;;;;;;3.58;0.70;;;17.40;50.10;;;;;;5096065;22;20047;-75
2021/05/01 12:18:45;;;;;;;2.33;0.10;;;17.10;49.80;;;;;;5094871;28;20024;-79
2021/05/01 12:21:40;;;;;;;0.93;0.10;;;16.90;50.50;;;;;;5094806;28;20020;-76
2021/05/01 12:24:27;;;;;;;1.05;0.43;;;16.60;51.80;;;;;;5076818;28;20024;-75
2021/05/01 12:26:54;;;;;;;0.55;0.10;;;16.40;54.10;;;;;;5076738;28;20018;-79
2021/05/01 12:29:20;;;;;;;0.43;0.10;;;15.80;49.70;;;;;;5088989;22;20028;-75
2021/05/01 12:32:06;;;;;;;0.50;0.08;;;15.50;54.10;;;;;;5094545;28;20028;-76
2021/05/01 12:34:47;;;;;;;1.70;0.10;;;15.90;53.90;;;;;;5094165;28;20028;-77
2021/05/01 12:37:15;;;;;;;1.08;0.22;;;16.10;53.90;;;;;;5094343;28;20046;-75
2021/05/01 12:39:43;;;;;;;0.28;0.10;;;16.20;54.00;;;;;;5075836;28;20107;-77
2021/05/01 12:42:30;;;;;;;0.40;0.17;;;16.10;52.90;;;;;;5094146;28;20388;-75
2021/05/01 12:44:56;;;;;;;2.63;0.52;;;15.60;51.20;;;;;;5095336;28;20024;-77
2021/05/01 12:47:45;;;;;;;3.22;0.10;;;15.40;53.00;;;;;;5075914;28;20446;-75
2021/05/01 12:50:22;;;;;;;1.30;0.20;;;15.50;52.00;;;;;;5081624;28;20040;-77
2021/05/01 12:52:49;;;;;;;2.20;0.10;;;15.30;51.40;;;;;;5094619;28;20027;-78
2021/05/01 12:55:16;;;;;;;3.60;0.15;;;15.50;53.50;;;;;;5076241;28;20070;-75
2021/05/01 12:57:42;;;;;;;1.38;0.80;;;15.70;55.30;;;;;;5093673;28;20495;-75
2021/05/01 13:00:28;;;;;;;0.65;0.13;;;15.70;50.60;;;;;;5093726;28;20480;-75
2021/05/01 13:03:05;;;;;;;1.73;0.13;;;15.90;53.90;;;;;;5076430;28;20369;-75
2021/05/01 13:05:34;;;;;;;0.67;0.20;;;15.80;52.80;;;;;;5093928;28;20523;-77
2021/05/01 13:08:02;;;;;;;1.67;0.10;;;16.10;53.40;;;;;;5093554;28;20024;-75
2021/05/01 13:10:27;;;;;;;0.28;0.15;;;16.30;48.30;;;;;;5094493;28;20459;-78